createdAt,value
2024-02-29T00:01:00.397Z,13.33
2024-02-29T00:03:53.141Z,13.37
2024-02-29T00:06:32.061Z,13.38
2024-02-29T00:09:10.743Z,13.39
2024-02-29T00:11:46.684Z,13.35
2024-02-29T00:14:23.717Z,13.34
2024-02-29T00:17:05.905Z,13.29
2024-02-29T00:19:54.800Z,13.31
2024-02-29T00:22:31.163Z,13.29
2024-02-29T00:25:10.447Z,13.26
2024-02-29T00:27:45.480Z,13.27
2024-02-29T00:30:21.449Z,13.21
2024-02-29T00:32:59.482Z,13.20
2024-02-29T00:35:48.816Z,13.14
2024-02-29T00:38:27.944Z,13.10
2024-02-29T00:41:05.007Z,13.16
2024-02-29T00:43:48.199Z,13.13
2024-02-29T00:46:19.997Z,13.09
2024-02-29T00:49:02.901Z,13.08
2024-02-29T00:51:44.918Z,13.10
2024-02-29T00:54:33.215Z,13.06
2024-02-29T00:57:23.892Z,13.07
2024-02-29T01:00:08.005Z,13.01
2024-02-29T01:02:49.246Z,13.01
2024-02-29T01:05:28.759Z,13.05
2024-02-29T01:08:14.996Z,12.98
2024-02-29T01:10:55.497Z,13.03
2024-02-29T01:13:33.535Z,13.01
2024-02-29T01:16:21.251Z,12.95
2024-02-29T01:19:02.260Z,12.95
2024-02-29T01:21:43.893Z,12.89
2024-02-29T01:24:22.937Z,12.93
2024-02-29T01:27:01.629Z,12.94
2024-02-29T01:29:44.749Z,12.98
2024-02-29T01:32:27.022Z,12.95
2024-02-29T01:35:14.991Z,12.95
2024-02-29T01:37:55.841Z,12.94
2024-02-29T01:40:35.518Z,12.96
2024-02-29T01:43:16.373Z,12.98
2024-02-29T01:45:57.523Z,13.01
2024-02-29T01:48:31.374Z,13.02
2024-02-29T01:51:10.449Z,13.02
2024-02-29T01:53:45.665Z,13.02
2024-02-29T01:56:30.537Z,12.98
2024-02-29T01:59:16.629Z,13.02
2024-02-29T02:01:53.475Z,13.00
2024-02-29T02:04:34.108Z,12.98
2024-02-29T02:07:12.810Z,12.97
2024-02-29T02:09:48.477Z,12.99
2024-02-29T02:12:38.914Z,12.97
2024-02-29T02:15:17.153Z,12.98
2024-02-29T02:17:53.988Z,12.95
2024-02-29T02:20:40.870Z,12.95
2024-02-29T02:23:27.106Z,12.95
2024-02-29T02:26:03.980Z,12.95
2024-02-29T02:28:37.414Z,12.94
2024-02-29T02:31:26.089Z,12.92
2024-02-29T02:34:03.335Z,12.95
2024-02-29T02:36:56.687Z,12.90
2024-02-29T02:39:37.942Z,12.86
2024-02-29T02:42:17.774Z,12.84
2024-02-29T02:44:52.760Z,12.84
2024-02-29T02:47:28.362Z,12.82
2024-02-29T02:50:07.167Z,12.83
2024-02-29T02:52:44.415Z,12.81
2024-02-29T02:55:22.740Z,12.84
2024-02-29T02:58:04.568Z,12.79
2024-02-29T03:00:42.896Z,12.81
2024-02-29T03:03:22.356Z,12.76
2024-02-29T03:06:01.900Z,12.74
2024-02-29T03:08:52.077Z,12.73
2024-02-29T03:11:32.336Z,12.77
2024-02-29T03:14:10.818Z,12.77
2024-02-29T03:16:50.080Z,12.71
2024-02-29T03:19:28.687Z,12.81
2024-02-29T03:22:06.390Z,12.67
2024-02-29T03:24:51.229Z,12.81
2024-02-29T03:27:43.065Z,12.84
2024-02-29T03:30:20.529Z,12.83
2024-02-29T03:32:59.755Z,12.88
2024-02-29T03:35:37.350Z,12.90
2024-02-29T03:38:19.156Z,12.85
2024-02-29T03:41:07.433Z,12.86
2024-02-29T03:43:41.063Z,12.88
2024-02-29T03:46:20.169Z,12.88
2024-02-29T03:48:54.248Z,12.92
2024-02-29T03:51:35.203Z,12.93
2024-02-29T03:54:13.400Z,12.90
2024-02-29T03:56:55.557Z,12.90
2024-02-29T03:59:36.934Z,12.91
2024-02-29T04:02:10.784Z,12.91
2024-02-29T04:04:48.421Z,12.88
2024-02-29T04:07:27.459Z,12.86
2024-02-29T04:10:04.817Z,12.82
2024-02-29T04:12:59.050Z,12.80
2024-02-29T04:15:34.441Z,12.80
2024-02-29T04:18:24.688Z,12.80
2024-02-29T04:21:07.414Z,12.78
2024-02-29T04:23:48.045Z,12.74
2024-02-29T04:26:28.238Z,12.80
2024-02-29T04:29:09.229Z,12.77
2024-02-29T04:31:57.878Z,12.74
2024-02-29T04:34:35.041Z,12.74
2024-02-29T04:37:15.810Z,12.73
2024-02-29T04:39:57.472Z,12.71
2024-02-29T04:42:38.361Z,12.72
2024-02-29T04:45:20.943Z,12.73
2024-02-29T04:47:52.880Z,12.65
2024-02-29T04:50:43.892Z,12.70
2024-02-29T04:53:16.133Z,12.68
2024-02-29T04:56:04.243Z,12.71
2024-02-29T04:58:38.608Z,12.67
2024-02-29T05:01:29.501Z,12.61
2024-02-29T05:04:11.503Z,12.71
2024-02-29T05:06:48.618Z,12.70
2024-02-29T05:09:21.613Z,12.69
2024-02-29T05:11:57.752Z,12.72
2024-02-29T05:14:32.666Z,12.71
2024-02-29T05:17:17.140Z,12.65
2024-02-29T05:19:50.737Z,12.71
2024-02-29T05:22:32.889Z,12.70
2024-02-29T05:25:17.098Z,12.70
2024-02-29T05:27:56.900Z,12.71
2024-02-29T05:30:38.424Z,12.70
2024-02-29T05:33:39.900Z,12.71
2024-02-29T05:36:19.567Z,12.64
2024-02-29T05:38:58.410Z,12.71
2024-02-29T05:41:39.412Z,12.73
2024-02-29T05:44:11.834Z,12.73
2024-02-29T05:46:46.649Z,12.77
2024-02-29T05:49:29.833Z,12.76
2024-02-29T05:52:10.821Z,12.79
2024-02-29T05:54:51.118Z,12.81
2024-02-29T05:57:39.337Z,12.84
2024-02-29T06:00:21.659Z,12.88
2024-02-29T06:03:00.670Z,12.85
2024-02-29T06:05:46.537Z,12.85
2024-02-29T06:08:38.978Z,12.83
2024-02-29T06:11:29.863Z,12.87
2024-02-29T06:14:10.354Z,12.83
2024-02-29T06:16:48.236Z,12.81
2024-02-29T06:19:31.595Z,12.79
2024-02-29T06:22:15.728Z,12.83
2024-02-29T06:24:55.747Z,12.85
2024-02-29T06:27:43.324Z,12.86
2024-02-29T06:30:38.584Z,12.88
2024-02-29T06:33:23.375Z,12.91
2024-02-29T06:36:09.883Z,12.94
2024-02-29T06:38:56.753Z,12.96
2024-02-29T06:41:57.389Z,13.00
2024-02-29T06:44:37.853Z,13.04
2024-02-29T06:47:22.484Z,13.05
2024-02-29T06:50:10.357Z,13.00
2024-02-29T06:52:44.333Z,13.10
2024-02-29T06:55:22.332Z,13.12
2024-02-29T06:58:16.521Z,13.11
2024-02-29T07:00:56.877Z,13.07
2024-02-29T07:03:32.839Z,13.09
2024-02-29T07:06:22.948Z,13.11
2024-02-29T07:09:03.501Z,13.13
2024-02-29T07:11:58.898Z,13.14
2024-02-29T07:14:38.437Z,13.18
2024-02-29T07:17:18.923Z,13.19
2024-02-29T07:19:59.482Z,13.22
2024-02-29T07:22:41.652Z,13.24
2024-02-29T07:25:32.417Z,13.25
2024-02-29T07:28:18.896Z,13.24
2024-02-29T07:31:01.630Z,13.24
2024-02-29T07:33:47.129Z,13.26
2024-02-29T07:36:26.449Z,13.27
2024-02-29T07:39:04.766Z,13.29
2024-02-29T07:41:45.418Z,13.30
2024-02-29T07:44:32.322Z,13.32
2024-02-29T07:47:11.318Z,13.33
2024-02-29T07:49:56.206Z,13.32
2024-02-29T07:52:37.260Z,13.35
2024-02-29T07:55:14.186Z,13.37
2024-02-29T07:57:55.870Z,13.40
2024-02-29T08:00:39.955Z,13.43
2024-02-29T08:03:18.457Z,13.50
2024-02-29T08:06:08.192Z,13.49
2024-02-29T08:08:43.801Z,13.51
2024-02-29T08:11:32.016Z,13.55
2024-02-29T08:14:06.386Z,13.59
2024-02-29T08:16:51.947Z,13.65
2024-02-29T08:19:25.137Z,13.68
2024-02-29T08:22:03.046Z,13.70
2024-02-29T08:27:40.101Z,13.79
2024-02-29T08:30:21.516Z,13.85
2024-02-29T08:33:01.163Z,13.91
2024-02-29T08:35:38.399Z,13.95
2024-02-29T08:38:24.809Z,14.02
2024-02-29T08:41:17.899Z,14.04
2024-02-29T08:44:09.566Z,14.05
2024-02-29T08:47:06.833Z,14.20
2024-02-29T08:49:54.609Z,14.27
2024-02-29T08:52:41.562Z,14.29
2024-02-29T08:55:30.648Z,14.30
2024-02-29T08:58:14.089Z,14.36
2024-02-29T09:00:51.893Z,14.38
2024-02-29T09:03:33.305Z,14.43
2024-02-29T09:06:21.247Z,14.45
2024-02-29T09:09:03.500Z,14.54
2024-02-29T09:11:40.102Z,14.64
2024-02-29T09:14:16.581Z,14.69
2024-02-29T09:16:54.386Z,14.78
2024-02-29T09:19:30.666Z,14.81
2024-02-29T09:22:21.562Z,14.89
2024-02-29T09:24:59.732Z,14.78
2024-02-29T09:27:50.188Z,14.92
2024-02-29T09:30:33.001Z,14.91
2024-02-29T09:33:12.611Z,14.96
2024-02-29T09:35:59.465Z,15.05
2024-02-29T09:38:40.038Z,15.05
2024-02-29T09:41:25.444Z,15.07
2024-02-29T09:44:09.900Z,15.17
2024-02-29T09:46:54.955Z,15.23
2024-02-29T09:49:35.988Z,15.32
2024-02-29T09:52:14.754Z,15.41
2024-02-29T09:54:59.223Z,15.45
2024-02-29T09:57:45.578Z,15.51
2024-02-29T10:00:28.924Z,15.59
2024-02-29T10:03:03.049Z,15.71
2024-02-29T10:05:38.274Z,15.69
2024-02-29T10:08:19.265Z,15.90
2024-02-29T10:11:12.763Z,15.97
2024-02-29T10:13:48.738Z,16.00
2024-02-29T10:16:29.225Z,16.06
2024-02-29T10:19:07.717Z,16.08
2024-02-29T10:21:47.889Z,16.16
2024-02-29T10:24:36.097Z,16.12
2024-02-29T10:27:15.117Z,16.13
2024-02-29T10:29:50.945Z,16.06
2024-02-29T10:32:28.870Z,16.08
2024-02-29T10:35:05.185Z,16.05
2024-02-29T10:37:45.287Z,16.05
2024-02-29T10:40:24.861Z,15.99
2024-02-29T10:43:21.081Z,15.92
2024-02-29T10:46:03.877Z,15.88
2024-02-29T10:49:01.987Z,15.83
2024-02-29T10:51:47.534Z,15.75
2024-02-29T10:54:29.853Z,15.66
2024-02-29T10:57:22.302Z,15.63
2024-02-29T11:00:22.752Z,15.56
2024-02-29T11:03:02.023Z,15.54
2024-02-29T11:05:42.079Z,15.51
2024-02-29T11:08:23.990Z,15.49
2024-02-29T11:11:07.818Z,15.51
2024-02-29T11:13:46.218Z,15.57
2024-02-29T11:16:35.924Z,15.67
2024-02-29T11:19:24.064Z,15.66
2024-02-29T11:22:00.739Z,15.66
2024-02-29T11:24:54.940Z,15.65
2024-02-29T11:27:53.640Z,15.71
2024-02-29T11:30:35.137Z,15.70
2024-02-29T11:33:19.351Z,15.67
2024-02-29T11:36:01.487Z,15.65
2024-02-29T11:38:43.233Z,15.65
2024-02-29T11:41:34.982Z,15.73
2024-02-29T11:44:12.492Z,15.76
2024-02-29T11:46:56.745Z,15.73
2024-02-29T11:49:43.052Z,15.80
2024-02-29T11:52:18.281Z,15.88
2024-02-29T11:54:55.757Z,15.90
2024-02-29T11:57:28.002Z,15.95
2024-02-29T12:00:01.818Z,15.97
2024-02-29T12:03:05.517Z,15.99
2024-02-29T12:05:48.490Z,16.05
2024-02-29T12:08:32.344Z,16.13
2024-02-29T12:11:20.004Z,16.19
2024-02-29T12:14:00.253Z,16.19
2024-02-29T12:16:33.832Z,16.20
2024-02-29T12:19:16.918Z,16.25
2024-02-29T12:22:04.782Z,16.22
2024-02-29T12:24:49.016Z,16.32
2024-02-29T12:27:28.770Z,16.33
2024-02-29T12:30:13.065Z,16.46
2024-02-29T12:32:53.276Z,16.49
2024-02-29T12:35:32.264Z,16.58
2024-02-29T12:38:28.547Z,16.68
2024-02-29T12:41:10.391Z,16.78
2024-02-29T12:43:58.974Z,16.85
2024-02-29T12:46:37.685Z,16.95
2024-02-29T12:49:15.094Z,17.03
2024-02-29T12:52:00.070Z,17.22
2024-02-29T12:54:45.246Z,17.34
2024-02-29T12:57:30.862Z,17.40
2024-02-29T13:00:08.947Z,17.62
2024-02-29T13:02:45.438Z,17.63
2024-02-29T13:05:26.177Z,17.63
2024-02-29T13:08:00.697Z,17.55
2024-02-29T13:10:54.780Z,17.54
2024-02-29T13:13:38.416Z,17.59
2024-02-29T13:16:15.184Z,17.44
2024-02-29T13:19:13.668Z,17.54
2024-02-29T13:21:52.237Z,17.61
2024-02-29T13:24:33.288Z,17.65
2024-02-29T13:27:25.697Z,17.69
2024-02-29T13:30:00.318Z,17.73
2024-02-29T13:32:43.785Z,17.80
2024-02-29T13:35:23.861Z,17.99
2024-02-29T13:38:03.574Z,18.06
2024-02-29T13:40:39.301Z,18.17
2024-02-29T13:43:26.333Z,18.22
2024-02-29T13:46:09.759Z,18.25
2024-02-29T13:48:47.425Z,18.33
2024-02-29T13:51:27.496Z,18.42
2024-02-29T13:54:12.051Z,18.49
2024-02-29T13:56:57.464Z,18.65
2024-02-29T13:59:47.041Z,18.68
2024-02-29T14:02:27.610Z,18.68
2024-02-29T14:05:11.401Z,18.68
2024-02-29T14:07:52.626Z,18.59
2024-02-29T14:10:34.552Z,18.54
2024-02-29T14:13:15.791Z,18.54
2024-02-29T14:16:08.107Z,18.47
2024-02-29T14:18:47.229Z,18.42
2024-02-29T14:21:31.660Z,18.38
2024-02-29T14:24:09.543Z,18.33
2024-02-29T14:26:42.829Z,18.28
2024-02-29T14:29:20.982Z,18.21
2024-02-29T14:31:58.729Z,18.17
2024-02-29T14:34:32.726Z,18.17
2024-02-29T14:37:22.117Z,18.07
2024-02-29T14:40:21.321Z,18.05
2024-02-29T14:42:54.843Z,17.98
2024-02-29T14:45:32.969Z,17.98
2024-02-29T14:48:18.740Z,17.92
2024-02-29T14:51:03.706Z,17.92
2024-02-29T14:53:53.022Z,17.84
2024-02-29T14:56:36.561Z,17.77
2024-02-29T14:59:14.014Z,17.75
2024-02-29T15:02:09.579Z,17.72
2024-02-29T15:04:50.891Z,17.73
2024-02-29T15:07:36.308Z,17.68
2024-02-29T15:10:19.232Z,17.61
2024-02-29T15:12:58.009Z,17.52
2024-02-29T15:15:51.265Z,17.42
2024-02-29T15:18:26.566Z,17.38
2024-02-29T15:21:20.740Z,17.29
2024-02-29T15:24:11.389Z,17.17
2024-02-29T15:26:51.465Z,17.15
2024-02-29T15:29:35.142Z,17.05
2024-02-29T15:32:22.686Z,17.04
2024-02-29T15:35:04.165Z,16.96
2024-02-29T15:37:46.461Z,16.90
2024-02-29T15:40:22.106Z,16.85
2024-02-29T15:43:12.656Z,16.80
2024-02-29T15:45:51.989Z,16.78
2024-02-29T15:48:33.186Z,16.73
2024-02-29T15:51:18.343Z,16.69
2024-02-29T15:54:04.042Z,16.64
2024-02-29T15:56:44.146Z,16.59
2024-02-29T15:59:30.037Z,16.56
2024-02-29T16:02:11.048Z,16.51
2024-02-29T16:04:51.992Z,16.40
2024-02-29T16:07:31.571Z,16.23
2024-02-29T16:10:16.808Z,16.26
2024-02-29T16:12:56.942Z,16.21
2024-02-29T16:15:38.063Z,16.10
2024-02-29T16:18:16.855Z,16.08
2024-02-29T16:21:05.222Z,16.06
2024-02-29T16:23:52.649Z,16.03
2024-02-29T16:26:36.100Z,15.97
2024-02-29T16:29:27.912Z,15.86
2024-02-29T16:32:12.393Z,15.84
2024-02-29T16:35:03.126Z,15.82
2024-02-29T16:37:48.629Z,15.71
2024-02-29T16:40:37.679Z,15.74
2024-02-29T16:43:25.295Z,15.69
2024-02-29T16:46:04.054Z,15.61
2024-02-29T16:48:42.862Z,15.58
2024-02-29T16:51:26.008Z,15.47
2024-02-29T16:54:14.212Z,15.42
2024-02-29T16:56:52.749Z,15.39
2024-02-29T16:59:45.601Z,15.37
2024-02-29T17:02:28.887Z,15.31
2024-02-29T17:05:07.129Z,15.23
2024-02-29T17:07:47.231Z,15.26
2024-02-29T17:10:36.432Z,15.26
2024-02-29T17:13:24.670Z,15.29
2024-02-29T17:16:05.324Z,15.23
2024-02-29T17:18:41.591Z,15.21
2024-02-29T17:21:21.653Z,15.16
2024-02-29T17:24:01.722Z,15.16
2024-02-29T17:26:47.381Z,15.11
2024-02-29T17:29:28.393Z,15.14
2024-02-29T17:32:18.545Z,15.11
2024-02-29T17:34:58.037Z,15.12
2024-02-29T17:37:38.112Z,15.07
2024-02-29T17:40:25.244Z,14.97
2024-02-29T17:43:05.109Z,14.95
2024-02-29T17:45:53.749Z,14.86
2024-02-29T17:48:40.623Z,14.81
2024-02-29T17:51:23.432Z,14.79
2024-02-29T17:54:08.856Z,14.77
2024-02-29T17:56:44.841Z,14.77
2024-02-29T17:59:17.716Z,14.71
2024-02-29T18:01:59.117Z,14.70
2024-02-29T18:04:41.925Z,14.69
2024-02-29T18:07:18.045Z,14.67
2024-02-29T18:09:58.324Z,14.65
2024-02-29T18:12:38.038Z,14.64
2024-02-29T18:15:15.246Z,14.49
2024-02-29T18:17:54.512Z,14.57
2024-02-29T18:20:33.200Z,14.54
2024-02-29T18:23:11.974Z,14.52
2024-02-29T18:25:51.234Z,14.44
2024-02-29T18:28:27.594Z,14.41
2024-02-29T18:31:11.135Z,14.33
2024-02-29T18:33:50.716Z,14.29
2024-02-29T18:36:37.169Z,14.21
2024-02-29T18:39:17.839Z,14.16
2024-02-29T18:41:48.997Z,14.07
2024-02-29T18:44:24.184Z,13.94
2024-02-29T18:47:09.116Z,13.94
2024-02-29T18:49:54.354Z,13.89
2024-02-29T18:52:48.341Z,13.70
2024-02-29T18:55:30.993Z,13.72
2024-02-29T18:58:14.866Z,13.71
2024-02-29T19:00:58.971Z,13.66
2024-02-29T19:03:35.202Z,13.64
2024-02-29T19:06:14.067Z,13.68
2024-02-29T19:08:58.321Z,13.65
2024-02-29T19:11:38.825Z,13.63
2024-02-29T19:14:20.545Z,13.50
2024-02-29T19:19:50.249Z,13.47
2024-02-29T19:22:28.800Z,13.50
2024-02-29T19:25:12.126Z,13.46
2024-02-29T19:27:50.376Z,13.40
2024-02-29T19:30:32.100Z,13.20
2024-02-29T19:33:08.898Z,13.21
2024-02-29T19:35:56.235Z,13.33
2024-02-29T19:38:33.463Z,13.34
2024-02-29T19:41:20.857Z,13.30
2024-02-29T19:43:59.348Z,13.26
2024-02-29T19:46:38.208Z,13.28
2024-02-29T19:49:25.673Z,13.23
2024-02-29T19:52:10.741Z,13.19
2024-02-29T19:54:50.876Z,13.16
2024-02-29T19:57:31.311Z,13.15
2024-02-29T20:00:08.870Z,13.18
2024-02-29T20:03:11.609Z,13.16
2024-02-29T20:05:54.781Z,13.10
2024-02-29T20:08:34.500Z,13.19
2024-02-29T20:11:20.217Z,13.16
2024-02-29T20:14:15.215Z,13.23
2024-02-29T20:16:50.180Z,13.21
2024-02-29T20:19:31.002Z,13.18
2024-02-29T20:22:13.551Z,13.19
2024-02-29T20:24:57.446Z,13.01
2024-02-29T20:27:38.868Z,13.16
2024-02-29T20:30:30.803Z,13.01
2024-02-29T20:33:13.606Z,13.12
2024-02-29T20:35:55.721Z,13.09
2024-02-29T20:38:31.378Z,12.96
2024-02-29T20:41:13.653Z,13.01
2024-02-29T20:43:57.464Z,13.02
2024-02-29T20:46:45.232Z,13.00
2024-02-29T20:49:23.793Z,13.04
2024-02-29T20:52:08.738Z,12.96
2024-02-29T20:54:47.968Z,12.94
2024-02-29T20:57:30.843Z,12.90
2024-02-29T21:00:11.175Z,12.89
2024-02-29T21:02:56.194Z,12.90
2024-02-29T21:05:37.816Z,12.80
2024-02-29T21:08:22.910Z,12.89
2024-02-29T21:11:03.578Z,12.84
2024-02-29T21:13:41.332Z,12.77
2024-02-29T21:16:16.759Z,12.77
2024-02-29T21:19:06.005Z,12.75
2024-02-29T21:21:46.462Z,12.75
2024-02-29T21:24:27.156Z,12.74
2024-02-29T21:27:26.006Z,12.77
2024-02-29T21:30:05.547Z,12.71
2024-02-29T21:32:46.644Z,12.70
2024-02-29T21:35:26.284Z,12.74
2024-02-29T21:38:06.875Z,12.73
2024-02-29T21:40:45.217Z,12.73
2024-02-29T21:43:24.655Z,12.76
2024-02-29T21:46:02.560Z,12.75
2024-02-29T21:48:44.021Z,12.72
2024-02-29T21:51:31.752Z,12.73
2024-02-29T21:54:27.466Z,12.69
2024-02-29T21:57:06.748Z,12.69
2024-02-29T21:59:39.136Z,12.70
2024-02-29T22:02:25.475Z,12.72
2024-02-29T22:05:06.921Z,12.67
2024-02-29T22:07:59.413Z,12.63
2024-02-29T22:10:32.937Z,12.60
2024-02-29T22:13:21.701Z,12.50
2024-02-29T22:16:03.901Z,12.54
2024-02-29T22:18:47.780Z,12.49
2024-02-29T22:21:33.755Z,12.50
2024-02-29T22:24:18.226Z,12.47
2024-02-29T22:26:54.263Z,12.45
2024-02-29T22:29:44.364Z,12.45
2024-02-29T22:32:40.303Z,12.40
2024-02-29T22:35:30.699Z,12.40
2024-02-29T22:38:16.798Z,12.41
2024-02-29T22:41:13.109Z,12.34
2024-02-29T22:43:54.644Z,12.38
2024-02-29T22:46:34.119Z,12.36
2024-02-29T22:49:22.510Z,12.36
2024-02-29T22:52:01.950Z,12.39
2024-02-29T22:54:43.101Z,12.29
2024-02-29T22:57:22.190Z,12.27
2024-02-29T22:59:59.594Z,12.25
2024-02-29T23:02:44.841Z,12.27
2024-02-29T23:05:23.357Z,12.24
2024-02-29T23:08:00.681Z,12.27
2024-02-29T23:10:35.001Z,12.28
2024-02-29T23:13:16.699Z,12.20
2024-02-29T23:15:53.232Z,12.22
2024-02-29T23:18:34.564Z,12.24
2024-02-29T23:21:13.930Z,12.27
2024-02-29T23:23:54.217Z,12.18
2024-02-29T23:26:36.463Z,12.20
2024-02-29T23:29:15.107Z,12.15
2024-02-29T23:31:58.737Z,12.15
2024-02-29T23:34:49.856Z,12.12
2024-02-29T23:37:28.415Z,12.09
2024-02-29T23:40:06.484Z,12.08
2024-02-29T23:42:51.029Z,12.08
2024-02-29T23:45:41.884Z,12.03
2024-02-29T23:48:14.688Z,11.99
2024-02-29T23:50:58.115Z,11.95
2024-02-29T23:53:38.699Z,11.97
2024-02-29T23:56:20.743Z,11.99
2024-02-29T23:58:56.801Z,12.01
